sensor_id;sensor_type;location;lat;lon;timestamp;P1;durP1;ratioP1;P2;durP2;ratioP2
20623;SDS011;10471;42.736;23.346;2022-11-18T00:00:47;233.37;;;104.73;;
20623;SDS011;10471;42.736;23.346;2022-11-18T00:03:13;395.60;;;120.37;;
20623;SDS011;10471;42.736;23.346;2022-11-18T00:05:38;260.30;;;120.27;;
20623;SDS011;10471;42.736;23.346;2022-11-18T00:08:04;650.00;;;163.53;;
20623;SDS011;10471;42.736;23.346;2022-11-18T00:10:30;594.37;;;165.17;;
20623;SDS011;10471;42.736;23.346;2022-11-18T00:12:55;576.07;;;168.23;;
20623;SDS011;10471;42.736;23.346;2022-11-18T00:15:39;372.73;;;129.60;;
20623;SDS011;10471;42.736;23.346;2022-11-18T00:18:05;620.93;;;155.07;;
20623;SDS011;10471;42.736;23.346;2022-11-18T00:20:31;584.97;;;159.33;;
20623;SDS011;10471;42.736;23.346;2022-11-18T00:22:58;396.07;;;142.57;;
20623;SDS011;10471;42.736;23.346;2022-11-18T00:25:24;514.87;;;144.03;;
20623;SDS011;10471;42.736;23.346;2022-11-18T00:27:49;651.03;;;160.97;;
20623;SDS011;10471;42.736;23.346;2022-11-18T00:30:15;586.27;;;157.00;;
20623;SDS011;10471;42.736;23.346;2022-11-18T00:32:41;620.13;;;164.17;;
20623;SDS011;10471;42.736;23.346;2022-11-18T00:35:06;544.73;;;151.13;;
20623;SDS011;10471;42.736;23.346;2022-11-18T00:37:32;281.57;;;123.27;;
20623;SDS011;10471;42.736;23.346;2022-11-18T00:39:57;474.90;;;142.43;;
20623;SDS011;10471;42.736;23.346;2022-11-18T00:42:23;465.47;;;141.43;;
20623;SDS011;10471;42.736;23.346;2022-11-18T00:45:07;495.33;;;144.93;;
20623;SDS011;10471;42.736;23.346;2022-11-18T00:47:32;474.37;;;144.30;;
20623;SDS011;10471;42.736;23.346;2022-11-18T00:49:58;365.77;;;125.00;;
20623;SDS011;10471;42.736;23.346;2022-11-18T00:52:23;306.93;;;120.27;;
20623;SDS011;10471;42.736;23.346;2022-11-18T00:54:48;391.27;;;134.77;;
20623;SDS011;10471;42.736;23.346;2022-11-18T00:57:14;340.50;;;129.77;;
20623;SDS011;10471;42.736;23.346;2022-11-18T00:59:39;266.20;;;122.13;;
20623;SDS011;10471;42.736;23.346;2022-11-18T01:02:04;361.73;;;131.37;;
20623;SDS011;10471;42.736;23.346;2022-11-18T01:04:30;350.57;;;130.07;;
20623;SDS011;10471;42.736;23.346;2022-11-18T01:06:55;448.50;;;127.43;;
20623;SDS011;10471;42.736;23.346;2022-11-18T01:09:21;384.70;;;126.03;;
20623;SDS011;10471;42.736;23.346;2022-11-18T01:11:46;184.73;;;97.80;;
20623;SDS011;10471;42.736;23.346;2022-11-18T01:14:30;344.20;;;109.13;;
20623;SDS011;10471;42.736;23.346;2022-11-18T01:16:55;279.37;;;110.47;;
20623;SDS011;10471;42.736;23.346;2022-11-18T01:19:21;385.83;;;110.13;;
20623;SDS011;10471;42.736;23.346;2022-11-18T01:21:48;207.10;;;90.10;;
20623;SDS011;10471;42.736;23.346;2022-11-18T01:24:13;327.20;;;116.33;;
20623;SDS011;10471;42.736;23.346;2022-11-18T01:26:39;399.30;;;116.60;;
20623;SDS011;10471;42.736;23.346;2022-11-18T01:29:05;180.93;;;68.90;;
20623;SDS011;10471;42.736;23.346;2022-11-18T01:31:30;138.60;;;61.23;;
20623;SDS011;10471;42.736;23.346;2022-11-18T01:33:56;171.80;;;60.77;;
20623;SDS011;10471;42.736;23.346;2022-11-18T01:36:22;168.37;;;60.53;;
20623;SDS011;10471;42.736;23.346;2022-11-18T01:38:50;118.63;;;53.07;;
20623;SDS011;10471;42.736;23.346;2022-11-18T01:41:17;91.90;;;49.70;;
20623;SDS011;10471;42.736;23.346;2022-11-18T01:46:20;159.37;;;49.60;;
20623;SDS011;10471;42.736;23.346;2022-11-18T01:48:48;220.27;;;53.57;;
20623;SDS011;10471;42.736;23.346;2022-11-18T01:51:18;196.20;;;52.60;;
20623;SDS011;10471;42.736;23.346;2022-11-18T01:53:50;151.03;;;48.37;;
20623;SDS011;10471;42.736;23.346;2022-11-18T01:56:21;192.30;;;52.40;;
20623;SDS011;10471;42.736;23.346;2022-11-18T01:58:53;124.13;;;47.27;;
20623;SDS011;10471;42.736;23.346;2022-11-18T02:01:27;163.07;;;52.50;;
20623;SDS011;10471;42.736;23.346;2022-11-18T02:03:53;207.73;;;54.53;;
20623;SDS011;10471;42.736;23.346;2022-11-18T02:06:19;179.10;;;51.13;;
20623;SDS011;10471;42.736;23.346;2022-11-18T02:08:45;190.80;;;56.23;;
20623;SDS011;10471;42.736;23.346;2022-11-18T02:11:12;247.57;;;58.80;;
20623;SDS011;10471;42.736;23.346;2022-11-18T02:13:57;297.40;;;59.70;;
20623;SDS011;10471;42.736;23.346;2022-11-18T02:16:26;141.67;;;50.53;;
20623;SDS011;10471;42.736;23.346;2022-11-18T02:28:05;136.63;;;47.57;;
20623;SDS011;10471;42.736;23.346;2022-11-18T02:30:27;145.27;;;44.00;;
20623;SDS011;10471;42.736;23.346;2022-11-18T02:32:57;120.53;;;39.53;;
20623;SDS011;10471;42.736;23.346;2022-11-18T02:35:37;282.73;;;56.03;;
20623;SDS011;10471;42.736;23.346;2022-11-18T02:38:14;174.00;;;48.47;;
20623;SDS011;10471;42.736;23.346;2022-11-18T02:40:46;244.33;;;49.97;;
20623;SDS011;10471;42.736;23.346;2022-11-18T02:43:27;131.20;;;40.40;;
20623;SDS011;10471;42.736;23.346;2022-11-18T02:45:57;149.97;;;43.13;;
20623;SDS011;10471;42.736;23.346;2022-11-18T02:48:26;181.80;;;43.93;;
20623;SDS011;10471;42.736;23.346;2022-11-18T02:50:54;143.03;;;41.97;;
20623;SDS011;10471;42.736;23.346;2022-11-18T02:53:22;188.27;;;46.77;;
20623;SDS011;10471;42.736;23.346;2022-11-18T02:55:49;113.97;;;43.97;;
20623;SDS011;10471;42.736;23.346;2022-11-18T02:58:16;112.97;;;41.90;;
20623;SDS011;10471;42.736;23.346;2022-11-18T03:00:44;98.57;;;37.03;;
20623;SDS011;10471;42.736;23.346;2022-11-18T03:03:27;162.83;;;40.60;;
20623;SDS011;10471;42.736;23.346;2022-11-18T03:08:45;87.73;;;34.67;;
20623;SDS011;10471;42.736;23.346;2022-11-18T03:11:17;151.10;;;40.07;;
20623;SDS011;10471;42.736;23.346;2022-11-18T03:16:44;139.67;;;38.13;;
20623;SDS011;10471;42.736;23.346;2022-11-18T03:22:22;149.67;;;42.10;;
20623;SDS011;10471;42.736;23.346;2022-11-18T03:30:16;180.37;;;41.27;;
20623;SDS011;10471;42.736;23.346;2022-11-18T03:32:47;184.07;;;41.37;;
20623;SDS011;10471;42.736;23.346;2022-11-18T03:35:20;238.20;;;44.40;;
20623;SDS011;10471;42.736;23.346;2022-11-18T03:37:48;214.60;;;44.83;;
20623;SDS011;10471;42.736;23.346;2022-11-18T03:40:21;281.53;;;45.57;;
20623;SDS011;10471;42.736;23.346;2022-11-18T03:42:52;272.60;;;41.67;;
20623;SDS011;10471;42.736;23.346;2022-11-18T03:46:05;269.20;;;37.97;;
20623;SDS011;10471;42.736;23.346;2022-11-18T03:48:14;218.23;;;37.30;;
20623;SDS011;10471;42.736;23.346;2022-11-18T03:50:42;297.93;;;41.70;;
20623;SDS011;10471;42.736;23.346;2022-11-18T03:53:12;206.10;;;39.27;;
20623;SDS011;10471;42.736;23.346;2022-11-18T03:55:42;238.70;;;42.23;;
20623;SDS011;10471;42.736;23.346;2022-11-18T04:00:46;231.87;;;40.43;;
20623;SDS011;10471;42.736;23.346;2022-11-18T04:03:14;162.77;;;38.03;;
20623;SDS011;10471;42.736;23.346;2022-11-18T04:05:40;133.37;;;36.13;;
20623;SDS011;10471;42.736;23.346;2022-11-18T04:08:32;201.00;;;37.77;;
20623;SDS011;10471;42.736;23.346;2022-11-18T04:13:31;172.50;;;36.87;;
20623;SDS011;10471;42.736;23.346;2022-11-18T04:15:58;235.73;;;39.80;;
20623;SDS011;10471;42.736;23.346;2022-11-18T04:18:24;272.37;;;40.13;;
20623;SDS011;10471;42.736;23.346;2022-11-18T04:20:50;239.70;;;39.90;;
20623;SDS011;10471;42.736;23.346;2022-11-18T04:23:15;174.53;;;35.57;;
20623;SDS011;10471;42.736;23.346;2022-11-18T04:25:41;142.57;;;35.13;;
20623;SDS011;10471;42.736;23.346;2022-11-18T04:28:06;197.57;;;37.00;;
20623;SDS011;10471;42.736;23.346;2022-11-18T04:30:32;133.67;;;35.17;;
20623;SDS011;10471;42.736;23.346;2022-11-18T04:32:57;115.80;;;33.00;;
20623;SDS011;10471;42.736;23.346;2022-11-18T04:35:23;158.83;;;36.67;;
20623;SDS011;10471;42.736;23.346;2022-11-18T04:37:49;170.90;;;38.40;;
20623;SDS011;10471;42.736;23.346;2022-11-18T04:40:14;125.50;;;32.50;;
20623;SDS011;10471;42.736;23.346;2022-11-18T04:42:40;127.60;;;31.83;;
20623;SDS011;10471;42.736;23.346;2022-11-18T04:45:06;126.80;;;31.43;;
20623;SDS011;10471;42.736;23.346;2022-11-18T04:47:32;137.30;;;30.67;;
20623;SDS011;10471;42.736;23.346;2022-11-18T04:49:57;155.10;;;30.83;;
20623;SDS011;10471;42.736;23.346;2022-11-18T04:52:22;113.43;;;26.87;;
20623;SDS011;10471;42.736;23.346;2022-11-18T04:54:48;82.90;;;25.37;;
20623;SDS011;10471;42.736;23.346;2022-11-18T04:57:13;89.07;;;27.30;;
20623;SDS011;10471;42.736;23.346;2022-11-18T04:59:39;120.60;;;28.60;;
20623;SDS011;10471;42.736;23.346;2022-11-18T05:02:04;102.37;;;27.63;;
20623;SDS011;10471;42.736;23.346;2022-11-18T05:04:31;107.67;;;27.97;;
20623;SDS011;10471;42.736;23.346;2022-11-18T05:06:58;182.67;;;32.23;;
20623;SDS011;10471;42.736;23.346;2022-11-18T05:09:25;122.47;;;30.30;;
20623;SDS011;10471;42.736;23.346;2022-11-18T05:11:51;232.77;;;33.20;;
20623;SDS011;10471;42.736;23.346;2022-11-18T05:14:35;86.97;;;26.03;;
20623;SDS011;10471;42.736;23.346;2022-11-18T05:17:01;136.10;;;30.93;;
20623;SDS011;10471;42.736;23.346;2022-11-18T05:19:28;117.10;;;29.50;;
20623;SDS011;10471;42.736;23.346;2022-11-18T05:21:53;124.67;;;29.73;;
20623;SDS011;10471;42.736;23.346;2022-11-18T05:24:19;88.17;;;27.90;;
20623;SDS011;10471;42.736;23.346;2022-11-18T05:26:44;119.40;;;30.37;;
20623;SDS011;10471;42.736;23.346;2022-11-18T05:29:10;128.77;;;33.43;;
20623;SDS011;10471;42.736;23.346;2022-11-18T05:31:36;106.20;;;32.53;;
20623;SDS011;10471;42.736;23.346;2022-11-18T05:34:02;189.47;;;36.50;;
20623;SDS011;10471;42.736;23.346;2022-11-18T05:36:28;229.77;;;37.80;;
20623;SDS011;10471;42.736;23.346;2022-11-18T05:38:53;186.83;;;36.47;;
20623;SDS011;10471;42.736;23.346;2022-11-18T05:41:18;89.93;;;31.33;;
20623;SDS011;10471;42.736;23.346;2022-11-18T05:44:03;167.57;;;36.90;;
20623;SDS011;10471;42.736;23.346;2022-11-18T05:46:30;73.47;;;30.57;;
20623;SDS011;10471;42.736;23.346;2022-11-18T05:48:55;122.23;;;34.93;;
20623;SDS011;10471;42.736;23.346;2022-11-18T05:51:21;83.87;;;31.27;;
20623;SDS011;10471;42.736;23.346;2022-11-18T05:53:47;83.30;;;31.40;;
20623;SDS011;10471;42.736;23.346;2022-11-18T05:58:53;130.90;;;31.83;;
20623;SDS011;10471;42.736;23.346;2022-11-18T06:01:31;152.53;;;31.30;;
20623;SDS011;10471;42.736;23.346;2022-11-18T06:04:10;74.00;;;23.70;;
20623;SDS011;10471;42.736;23.346;2022-11-18T06:06:39;107.33;;;24.77;;
20623;SDS011;10471;42.736;23.346;2022-11-18T06:09:06;94.87;;;20.20;;
20623;SDS011;10471;42.736;23.346;2022-11-18T06:11:36;119.50;;;21.30;;
20623;SDS011;10471;42.736;23.346;2022-11-18T06:14:10;122.33;;;23.10;;
20623;SDS011;10471;42.736;23.346;2022-11-18T06:16:43;113.83;;;23.17;;
20623;SDS011;10471;42.736;23.346;2022-11-18T06:19:13;69.00;;;22.47;;
20623;SDS011;10471;42.736;23.346;2022-11-18T06:21:39;110.07;;;28.17;;
20623;SDS011;10471;42.736;23.346;2022-11-18T06:24:04;100.50;;;24.07;;
20623;SDS011;10471;42.736;23.346;2022-11-18T06:26:31;120.60;;;23.27;;
20623;SDS011;10471;42.736;23.346;2022-11-18T06:28:56;144.07;;;22.03;;
20623;SDS011;10471;42.736;23.346;2022-11-18T06:31:22;98.53;;;19.20;;
20623;SDS011;10471;42.736;23.346;2022-11-18T06:33:47;72.07;;;18.23;;
20623;SDS011;10471;42.736;23.346;2022-11-18T06:36:13;67.00;;;15.17;;
20623;SDS011;10471;42.736;23.346;2022-11-18T06:38:38;79.60;;;18.33;;
20623;SDS011;10471;42.736;23.346;2022-11-18T06:41:03;59.93;;;11.80;;
20623;SDS011;10471;42.736;23.346;2022-11-18T06:43:29;87.47;;;13.93;;
20623;SDS011;10471;42.736;23.346;2022-11-18T06:46:05;90.43;;;13.30;;
20623;SDS011;10471;42.736;23.346;2022-11-18T06:48:57;149.20;;;15.77;;
20623;SDS011;10471;42.736;23.346;2022-11-18T06:51:23;85.87;;;15.57;;
20623;SDS011;10471;42.736;23.346;2022-11-18T06:53:48;33.47;;;12.70;;
20623;SDS011;10471;42.736;23.346;2022-11-18T06:56:15;73.67;;;16.07;;
20623;SDS011;10471;42.736;23.346;2022-11-18T06:58:41;143.63;;;18.57;;
20623;SDS011;10471;42.736;23.346;2022-11-18T07:03:38;101.47;;;19.97;;
20623;SDS011;10471;42.736;23.346;2022-11-18T07:06:05;78.13;;;18.50;;
20623;SDS011;10471;42.736;23.346;2022-11-18T07:08:33;84.33;;;21.93;;
20623;SDS011;10471;42.736;23.346;2022-11-18T07:10:59;125.20;;;24.60;;
20623;SDS011;10471;42.736;23.346;2022-11-18T07:13:25;143.90;;;27.30;;
20623;SDS011;10471;42.736;23.346;2022-11-18T07:15:51;77.83;;;20.90;;
20623;SDS011;10471;42.736;23.346;2022-11-18T07:18:16;81.93;;;16.13;;
20623;SDS011;10471;42.736;23.346;2022-11-18T07:20:41;103.80;;;17.73;;
20623;SDS011;10471;42.736;23.346;2022-11-18T07:23:07;82.43;;;15.83;;
20623;SDS011;10471;42.736;23.346;2022-11-18T07:25:33;45.33;;;13.17;;
20623;SDS011;10471;42.736;23.346;2022-11-18T07:27:58;83.83;;;14.00;;
20623;SDS011;10471;42.736;23.346;2022-11-18T07:30:24;93.97;;;15.13;;
20623;SDS011;10471;42.736;23.346;2022-11-18T07:32:49;107.83;;;15.40;;
20623;SDS011;10471;42.736;23.346;2022-11-18T07:35:14;109.33;;;15.20;;
20623;SDS011;10471;42.736;23.346;2022-11-18T07:37:42;114.63;;;15.70;;
20623;SDS011;10471;42.736;23.346;2022-11-18T07:40:07;81.43;;;14.30;;
20623;SDS011;10471;42.736;23.346;2022-11-18T07:42:33;124.30;;;18.93;;
20623;SDS011;10471;42.736;23.346;2022-11-18T07:45:07;235.83;;;25.20;;
20623;SDS011;10471;42.736;23.346;2022-11-18T07:47:36;348.43;;;29.83;;
20623;SDS011;10471;42.736;23.346;2022-11-18T07:50:02;203.83;;;23.17;;
20623;SDS011;10471;42.736;23.346;2022-11-18T07:52:28;150.67;;;21.90;;
20623;SDS011;10471;42.736;23.346;2022-11-18T07:54:53;127.63;;;19.53;;
20623;SDS011;10471;42.736;23.346;2022-11-18T07:57:19;65.57;;;16.40;;
20623;SDS011;10471;42.736;23.346;2022-11-18T07:59:44;61.00;;;14.43;;
20623;SDS011;10471;42.736;23.346;2022-11-18T08:02:10;133.67;;;16.43;;
20623;SDS011;10471;42.736;23.346;2022-11-18T08:04:36;130.10;;;20.83;;
20623;SDS011;10471;42.736;23.346;2022-11-18T08:07:01;71.77;;;18.33;;
20623;SDS011;10471;42.736;23.346;2022-11-18T08:09:27;119.60;;;20.90;;
20623;SDS011;10471;42.736;23.346;2022-11-18T08:11:52;99.50;;;20.17;;
20623;SDS011;10471;42.736;23.346;2022-11-18T08:14:18;110.50;;;19.63;;
20623;SDS011;10471;42.736;23.346;2022-11-18T08:16:43;132.93;;;21.93;;
20623;SDS011;10471;42.736;23.346;2022-11-18T08:19:08;156.30;;;22.77;;
20623;SDS011;10471;42.736;23.346;2022-11-18T08:21:34;129.07;;;19.90;;
20623;SDS011;10471;42.736;23.346;2022-11-18T08:23:59;124.13;;;20.63;;
20623;SDS011;10471;42.736;23.346;2022-11-18T08:26:25;123.50;;;22.20;;
20623;SDS011;10471;42.736;23.346;2022-11-18T08:28:51;156.63;;;21.33;;
20623;SDS011;10471;42.736;23.346;2022-11-18T08:31:18;111.67;;;19.13;;
20623;SDS011;10471;42.736;23.346;2022-11-18T08:33:45;63.30;;;17.67;;
20623;SDS011;10471;42.736;23.346;2022-11-18T08:36:14;281.40;;;32.07;;
20623;SDS011;10471;42.736;23.346;2022-11-18T08:38:41;279.00;;;33.43;;
20623;SDS011;10471;42.736;23.346;2022-11-18T08:41:53;93.43;;;23.87;;
20623;SDS011;10471;42.736;23.346;2022-11-18T08:43:57;83.27;;;22.73;;
20623;SDS011;10471;42.736;23.346;2022-11-18T08:46:23;53.23;;;22.10;;
20623;SDS011;10471;42.736;23.346;2022-11-18T08:48:48;131.80;;;29.23;;
20623;SDS011;10471;42.736;23.346;2022-11-18T08:51:14;267.27;;;34.97;;
20623;SDS011;10471;42.736;23.346;2022-11-18T08:53:40;95.27;;;27.27;;
20623;SDS011;10471;42.736;23.346;2022-11-18T08:56:05;230.70;;;33.70;;
20623;SDS011;10471;42.736;23.346;2022-11-18T08:58:31;134.33;;;27.30;;
20623;SDS011;10471;42.736;23.346;2022-11-18T09:00:57;161.77;;;27.40;;
20623;SDS011;10471;42.736;23.346;2022-11-18T09:03:28;85.67;;;23.53;;
20623;SDS011;10471;42.736;23.346;2022-11-18T09:05:53;67.87;;;24.03;;
20623;SDS011;10471;42.736;23.346;2022-11-18T09:08:18;47.77;;;21.67;;
20623;SDS011;10471;42.736;23.346;2022-11-18T09:10:45;51.20;;;23.50;;
20623;SDS011;10471;42.736;23.346;2022-11-18T09:13:11;108.27;;;25.40;;
20623;SDS011;10471;42.736;23.346;2022-11-18T09:15:36;69.97;;;25.63;;
20623;SDS011;10471;42.736;23.346;2022-11-18T09:18:01;75.57;;;24.83;;
20623;SDS011;10471;42.736;23.346;2022-11-18T09:20:27;98.87;;;36.03;;
20623;SDS011;10471;42.736;23.346;2022-11-18T09:22:52;49.47;;;25.47;;
20623;SDS011;10471;42.736;23.346;2022-11-18T09:25:17;90.43;;;25.53;;
20623;SDS011;10471;42.736;23.346;2022-11-18T09:27:43;47.53;;;22.37;;
20623;SDS011;10471;42.736;23.346;2022-11-18T09:30:08;64.37;;;27.50;;
20623;SDS011;10471;42.736;23.346;2022-11-18T09:32:34;49.40;;;28.43;;
20623;SDS011;10471;42.736;23.346;2022-11-18T09:34:59;53.53;;;28.83;;
20623;SDS011;10471;42.736;23.346;2022-11-18T09:37:25;66.77;;;27.43;;
20623;SDS011;10471;42.736;23.346;2022-11-18T09:39:50;79.30;;;31.20;;
20623;SDS011;10471;42.736;23.346;2022-11-18T09:42:31;72.93;;;34.53;;
20623;SDS011;10471;42.736;23.346;2022-11-18T09:45:22;60.27;;;32.10;;
20623;SDS011;10471;42.736;23.346;2022-11-18T09:47:54;57.60;;;32.00;;
20623;SDS011;10471;42.736;23.346;2022-11-18T09:50:22;75.20;;;32.23;;
20623;SDS011;10471;42.736;23.346;2022-11-18T09:55:19;55.83;;;32.07;;
20623;SDS011;10471;42.736;23.346;2022-11-18T09:57:51;70.83;;;40.07;;
20623;SDS011;10471;42.736;23.346;2022-11-18T10:00:23;60.73;;;34.00;;
20623;SDS011;10471;42.736;23.346;2022-11-18T10:05:20;55.07;;;33.67;;
20623;SDS011;10471;42.736;23.346;2022-11-18T10:10:20;53.60;;;33.73;;
20623;SDS011;10471;42.736;23.346;2022-11-18T10:12:54;57.23;;;34.30;;
20623;SDS011;10471;42.736;23.346;2022-11-18T10:15:28;64.17;;;39.73;;
20623;SDS011;10471;42.736;23.346;2022-11-18T10:20:55;54.83;;;33.47;;
20623;SDS011;10471;42.736;23.346;2022-11-18T10:23:25;68.53;;;40.27;;
20623;SDS011;10471;42.736;23.346;2022-11-18T10:25:57;87.60;;;45.47;;
20623;SDS011;10471;42.736;23.346;2022-11-18T10:28:27;79.57;;;45.13;;
20623;SDS011;10471;42.736;23.346;2022-11-18T10:31:02;82.93;;;45.27;;
20623;SDS011;10471;42.736;23.346;2022-11-18T10:33:29;74.40;;;42.77;;
20623;SDS011;10471;42.736;23.346;2022-11-18T10:38:42;68.27;;;42.03;;
20623;SDS011;10471;42.736;23.346;2022-11-18T10:41:10;71.03;;;43.53;;
20623;SDS011;10471;42.736;23.346;2022-11-18T10:43:52;88.87;;;46.43;;
20623;SDS011;10471;42.736;23.346;2022-11-18T10:46:30;98.03;;;51.00;;
20623;SDS011;10471;42.736;23.346;2022-11-18T10:51:35;103.93;;;53.67;;
20623;SDS011;10471;42.736;23.346;2022-11-18T10:54:10;100.03;;;55.90;;
20623;SDS011;10471;42.736;23.346;2022-11-18T10:56:45;81.97;;;46.13;;
20623;SDS011;10471;42.736;23.346;2022-11-18T11:04:56;51.90;;;33.93;;
20623;SDS011;10471;42.736;23.346;2022-11-18T11:09:58;45.47;;;31.23;;
20623;SDS011;10471;42.736;23.346;2022-11-18T11:12:24;37.63;;;26.83;;
20623;SDS011;10471;42.736;23.346;2022-11-18T11:14:55;35.40;;;25.37;;
20623;SDS011;10471;42.736;23.346;2022-11-18T11:17:41;40.20;;;26.20;;
20623;SDS011;10471;42.736;23.346;2022-11-18T11:20:14;37.77;;;23.90;;
20623;SDS011;10471;42.736;23.346;2022-11-18T11:22:42;40.83;;;23.93;;
20623;SDS011;10471;42.736;23.346;2022-11-18T11:28:23;40.93;;;26.00;;
20623;SDS011;10471;42.736;23.346;2022-11-18T11:41:34;52.70;;;33.83;;
20623;SDS011;10471;42.736;23.346;2022-11-18T11:46:58;45.10;;;28.63;;
20623;SDS011;10471;42.736;23.346;2022-11-18T11:50:07;41.70;;;26.43;;
20623;SDS011;10471;42.736;23.346;2022-11-18T11:53:08;47.33;;;26.90;;
20623;SDS011;10471;42.736;23.346;2022-11-18T12:06:35;41.13;;;26.03;;
20623;SDS011;10471;42.736;23.346;2022-11-18T12:09:06;39.23;;;24.67;;
20623;SDS011;10471;42.736;23.346;2022-11-18T12:11:45;38.87;;;24.73;;
20623;SDS011;10471;42.736;23.346;2022-11-18T12:14:21;45.73;;;27.27;;
20623;SDS011;10471;42.736;23.346;2022-11-18T12:16:59;45.37;;;26.50;;
20623;SDS011;10471;42.736;23.346;2022-11-18T12:19:27;41.57;;;25.00;;
20623;SDS011;10471;42.736;23.346;2022-11-18T12:26:50;44.60;;;26.40;;
20623;SDS011;10471;42.736;23.346;2022-11-18T12:31:53;38.63;;;24.63;;
20623;SDS011;10471;42.736;23.346;2022-11-18T12:36:49;39.47;;;24.67;;
20623;SDS011;10471;42.736;23.346;2022-11-18T12:44:33;56.80;;;29.40;;
20623;SDS011;10471;42.736;23.346;2022-11-18T12:46:59;50.33;;;29.07;;
20623;SDS011;10471;42.736;23.346;2022-11-18T12:51:53;46.73;;;29.83;;
20623;SDS011;10471;42.736;23.346;2022-11-18T12:56:48;44.73;;;27.13;;
20623;SDS011;10471;42.736;23.346;2022-11-18T12:59:14;41.30;;;25.80;;
20623;SDS011;10471;42.736;23.346;2022-11-18T13:01:39;47.37;;;29.90;;
20623;SDS011;10471;42.736;23.346;2022-11-18T13:04:14;39.87;;;26.57;;
20623;SDS011;10471;42.736;23.346;2022-11-18T13:06:43;65.10;;;40.03;;
20623;SDS011;10471;42.736;23.346;2022-11-18T13:09:14;48.93;;;31.93;;
20623;SDS011;10471;42.736;23.346;2022-11-18T13:11:52;48.47;;;31.27;;
20623;SDS011;10471;42.736;23.346;2022-11-18T13:22:56;67.00;;;42.07;;
20623;SDS011;10471;42.736;23.346;2022-11-18T13:25:45;44.73;;;29.47;;
20623;SDS011;10471;42.736;23.346;2022-11-18T13:28:24;50.47;;;32.13;;
20623;SDS011;10471;42.736;23.346;2022-11-18T13:33:47;77.13;;;49.30;;
20623;SDS011;10471;42.736;23.346;2022-11-18T13:41:21;71.00;;;44.80;;
20623;SDS011;10471;42.736;23.346;2022-11-18T13:43:48;115.37;;;69.53;;
20623;SDS011;10471;42.736;23.346;2022-11-18T13:46:16;130.13;;;63.80;;
20623;SDS011;10471;42.736;23.346;2022-11-18T13:48:46;58.40;;;37.73;;
20623;SDS011;10471;42.736;23.346;2022-11-18T13:51:16;43.57;;;27.10;;
20623;SDS011;10471;42.736;23.346;2022-11-18T13:53:42;74.23;;;49.23;;
20623;SDS011;10471;42.736;23.346;2022-11-18T13:56:24;45.13;;;29.90;;
20623;SDS011;10471;42.736;23.346;2022-11-18T13:58:53;42.50;;;27.53;;
20623;SDS011;10471;42.736;23.346;2022-11-18T14:03:49;64.20;;;39.03;;
20623;SDS011;10471;42.736;23.346;2022-11-18T14:06:30;88.53;;;55.17;;
20623;SDS011;10471;42.736;23.346;2022-11-18T14:11:40;45.77;;;29.30;;
20623;SDS011;10471;42.736;23.346;2022-11-18T14:14:09;41.47;;;29.47;;
20623;SDS011;10471;42.736;23.346;2022-11-18T14:16:37;35.80;;;23.20;;
20623;SDS011;10471;42.736;23.346;2022-11-18T14:19:04;145.07;;;90.33;;
20623;SDS011;10471;42.736;23.346;2022-11-18T14:21:31;83.90;;;52.13;;
20623;SDS011;10471;42.736;23.346;2022-11-18T14:23:59;84.80;;;52.20;;
20623;SDS011;10471;42.736;23.346;2022-11-18T14:26:29;57.17;;;36.47;;
20623;SDS011;10471;42.736;23.346;2022-11-18T14:28:56;62.50;;;40.13;;
20623;SDS011;10471;42.736;23.346;2022-11-18T14:31:29;67.50;;;45.27;;
20623;SDS011;10471;42.736;23.346;2022-11-18T14:36:48;100.03;;;56.23;;
20623;SDS011;10471;42.736;23.346;2022-11-18T14:41:43;45.73;;;26.33;;
20623;SDS011;10471;42.736;23.346;2022-11-18T14:44:11;53.57;;;28.50;;
20623;SDS011;10471;42.736;23.346;2022-11-18T14:46:45;53.33;;;31.13;;
20623;SDS011;10471;42.736;23.346;2022-11-18T14:49:17;63.37;;;36.63;;
20623;SDS011;10471;42.736;23.346;2022-11-18T14:51:45;69.47;;;40.03;;
20623;SDS011;10471;42.736;23.346;2022-11-18T14:54:12;61.57;;;38.07;;
20623;SDS011;10471;42.736;23.346;2022-11-18T14:56:39;61.40;;;39.90;;
20623;SDS011;10471;42.736;23.346;2022-11-18T14:59:05;50.60;;;33.47;;
20623;SDS011;10471;42.736;23.346;2022-11-18T15:01:30;45.37;;;29.00;;
20623;SDS011;10471;42.736;23.346;2022-11-18T15:03:56;43.63;;;23.87;;
20623;SDS011;10471;42.736;23.346;2022-11-18T15:06:21;43.37;;;23.17;;
20623;SDS011;10471;42.736;23.346;2022-11-18T15:08:47;54.87;;;29.97;;
20623;SDS011;10471;42.736;23.346;2022-11-18T15:11:14;100.37;;;51.67;;
20623;SDS011;10471;42.736;23.346;2022-11-18T15:13:39;59.23;;;34.63;;
20623;SDS011;10471;42.736;23.346;2022-11-18T15:16:12;72.87;;;41.87;;
20623;SDS011;10471;42.736;23.346;2022-11-18T15:18:50;69.80;;;38.03;;
20623;SDS011;10471;42.736;23.346;2022-11-18T15:21:17;133.60;;;98.10;;
20623;SDS011;10471;42.736;23.346;2022-11-18T15:23:43;154.13;;;100.03;;
20623;SDS011;10471;42.736;23.346;2022-11-18T15:26:21;136.60;;;94.10;;
20623;SDS011;10471;42.736;23.346;2022-11-18T15:28:50;85.97;;;55.87;;
20623;SDS011;10471;42.736;23.346;2022-11-18T15:31:16;78.37;;;49.70;;
20623;SDS011;10471;42.736;23.346;2022-11-18T15:33:42;106.17;;;61.73;;
20623;SDS011;10471;42.736;23.346;2022-11-18T15:36:10;24.70;;;15.93;;
20623;SDS011;10471;42.736;23.346;2022-11-18T15:38:37;12.23;;;8.10;;
20623;SDS011;10471;42.736;23.346;2022-11-18T15:41:03;21.03;;;13.00;;
20623;SDS011;10471;42.736;23.346;2022-11-18T15:43:28;637.93;;;385.97;;
20623;SDS011;10471;42.736;23.346;2022-11-18T15:45:57;42.67;;;25.20;;
20623;SDS011;10471;42.736;23.346;2022-11-18T15:48:22;32.40;;;21.40;;
20623;SDS011;10471;42.736;23.346;2022-11-18T15:50:48;26.20;;;18.30;;
20623;SDS011;10471;42.736;23.346;2022-11-18T15:53:13;26.90;;;14.20;;
20623;SDS011;10471;42.736;23.346;2022-11-18T15:55:39;16.50;;;11.20;;
20623;SDS011;10471;42.736;23.346;2022-11-18T15:58:04;18.90;;;10.53;;
20623;SDS011;10471;42.736;23.346;2022-11-18T16:00:30;17.93;;;10.70;;
20623;SDS011;10471;42.736;23.346;2022-11-18T16:02:55;36.60;;;22.43;;
20623;SDS011;10471;42.736;23.346;2022-11-18T16:05:20;28.33;;;18.33;;
20623;SDS011;10471;42.736;23.346;2022-11-18T16:07:46;36.53;;;23.67;;
20623;SDS011;10471;42.736;23.346;2022-11-18T16:10:12;37.33;;;23.50;;
20623;SDS011;10471;42.736;23.346;2022-11-18T16:12:55;41.80;;;26.13;;
20623;SDS011;10471;42.736;23.346;2022-11-18T16:15:21;43.13;;;25.23;;
20623;SDS011;10471;42.736;23.346;2022-11-18T16:18:05;63.07;;;36.73;;
20623;SDS011;10471;42.736;23.346;2022-11-18T16:20:30;32.63;;;19.50;;
20623;SDS011;10471;42.736;23.346;2022-11-18T16:22:56;19.87;;;11.17;;
20623;SDS011;10471;42.736;23.346;2022-11-18T16:25:22;18.47;;;10.93;;